Time;durP1;ratioP1;P1;durP2;ratioP2;P2;SDS_P1;SDS_P2;PMS_P1;PMS_P2;Temp;Humidity;BMP_temperature;BMP_pressure;BME280_temperature;BME280_humidity;BME280_pressure;Samples;Min_cycle;Max_cycle;Signal;HPM_P1;HPM_P2
2021/09/27 00:00:44;;;;;;;;;;;17.00;1.00;;;;;;5049092;28;20342;-65
2021/09/27 00:03:09;;;;;;;;;;;16.90;1.00;;;;;;5056778;28;19920;-66
2021/09/27 00:05:35;;;;;;;;;;;16.90;1.00;;;;;;5069714;28;19909;-65
2021/09/27 00:08:00;;;;;;;;;;;16.80;1.00;;;;;;5068847;28;19917;-66
2021/09/27 00:10:28;;;;;;;;;;;16.80;1.00;;;;;;5062177;28;20705;-66
2021/09/27 00:12:54;;;;;;;;;;;16.80;1.00;;;;;;5047960;28;19908;-66
2021/09/27 00:15:23;;;;;;;;;;;16.80;1.00;;;;;;5049255;28;20377;-65
2021/09/27 00:17:49;;;;;;;;;;;16.80;1.00;;;;;;5049457;28;19909;-66
2021/09/27 00:20:14;;;;;;;;;;;16.70;1.00;;;;;;5049275;28;20035;-64
2021/09/27 00:22:40;;;;;;;;;;;16.70;1.00;;;;;;5048360;28;19913;-66
2021/09/27 00:25:06;;;;;;;;;;;16.70;1.00;;;;;;5060169;28;19908;-66
2021/09/27 00:27:31;;;;;;;;;;;16.60;1.00;;;;;;5068404;28;19948;-66
2021/09/27 00:29:59;;;;;;;;;;;16.60;1.00;;;;;;5068708;28;19908;-65
2021/09/27 00:32:24;;;;;;;;;;;16.50;1.00;;;;;;5067530;28;20374;-66
2021/09/27 00:34:49;;;;;;;;;;;16.50;1.00;;;;;;5069103;28;20129;-65
2021/09/27 00:37:15;;;;;;;;;;;16.50;1.00;;;;;;5068764;28;20353;-65
2021/09/27 00:39:40;;;;;;;;;;;16.50;1.00;;;;;;5060831;28;19919;-65
2021/09/27 00:42:06;;;;;;;;;;;16.40;1.00;;;;;;5067270;28;19982;-66
2021/09/27 00:44:31;;;;;;;;;;;16.40;1.00;;;;;;5068179;28;19963;-66
2021/09/27 00:46:57;;;;;;;;;;;16.40;1.00;;;;;;5068452;28;19915;-66
2021/09/27 00:49:22;;;;;;;;;;;16.40;1.00;;;;;;5068957;28;19962;-66
2021/09/27 00:51:48;;;;;;;;;;;16.30;1.00;;;;;;5068536;28;20262;-65
2021/09/27 00:54:19;;;;;;;;;;;16.30;1.00;;;;;;5068491;28;19923;-65
2021/09/27 00:56:47;;;;;;;;;;;16.20;1.00;;;;;;5068988;28;19934;-66
2021/09/27 00:59:12;;;;;;;;;;;16.10;1.00;;;;;;5068239;28;20003;-65
2021/09/27 01:01:38;;;;;;;;;;;16.10;1.00;;;;;;5064585;28;20032;-66
2021/09/27 01:04:04;;;;;;;;;;;16.00;1.00;;;;;;5062091;28;20392;-65
2021/09/27 01:06:29;;;;;;;;;;;16.00;1.00;;;;;;5048294;28;20007;-66
2021/09/27 01:08:55;;;;;;;;;;;16.10;1.00;;;;;;5048528;28;19909;-66
2021/09/27 01:11:20;;;;;;;;;;;16.00;1.00;;;;;;5063020;28;19962;-66
2021/09/27 01:14:06;;;;;;;;;;;16.00;1.00;;;;;;5066883;28;19920;-66
2021/09/27 01:16:38;;;;;;;;;;;16.00;1.00;;;;;;5068183;28;20356;-65
2021/09/27 01:19:22;;;;;;;;;;;16.00;1.00;;;;;;5068069;28;19909;-66
2021/09/27 01:21:53;;;;;;;;;;;16.00;1.00;;;;;;5068060;28;19954;-66
2021/09/27 01:24:21;;;;;;;;;;;16.10;1.00;;;;;;5068251;28;19995;-65
2021/09/27 01:27:02;;;;;;;;;;;16.10;1.00;;;;;;5067802;28;19912;-65
2021/09/27 01:29:33;;;;;;;;;;;16.20;1.00;;;;;;5067706;28;19916;-66
2021/09/27 01:32:19;;;;;;;;;;;16.20;1.00;;;;;;5067497;28;19913;-64
2021/09/27 01:34:45;;;;;;;;;;;16.30;1.00;;;;;;5036856;28;20453;-66
2021/09/27 01:37:33;;;;;;;;;;;16.40;1.00;;;;;;5068571;28;20026;-65
2021/09/27 01:40:11;;;;;;;;;;;16.40;1.00;;;;;;5068091;28;19912;-66
2021/09/27 01:42:45;;;;;;;;;;;16.40;1.00;;;;;;5066371;28;19905;-66
2021/09/27 01:45:19;;;;;;;;;;;16.40;1.00;;;;;;5068478;28;19920;-66
2021/09/27 01:47:47;;;;;;;;;;;16.40;1.00;;;;;;5071778;28;19913;-65
2021/09/27 01:50:19;;;;;;;;;;;16.40;1.00;;;;;;5072207;28;19978;-66
2021/09/27 01:53:03;;;;;;;;;;;16.40;1.00;;;;;;5070460;28;19944;-66
2021/09/27 01:55:49;;;;;;;;;;;16.50;1.00;;;;;;5071769;28;20057;-66
2021/09/27 01:58:16;;;;;;;;;;;16.50;1.00;;;;;;5070593;28;20389;-66
2021/09/27 02:00:47;;;;;;;;;;;16.50;1.00;;;;;;5070419;28;19927;-66
2021/09/27 02:03:19;;;;;;;;;;;16.50;1.00;;;;;;5072977;28;20042;-66
2021/09/27 02:05:53;;;;;;;;;;;16.50;1.00;;;;;;5052389;28;19909;-66
2021/09/27 02:08:22;;;;;;;;;;;16.40;1.00;;;;;;5051503;28;19909;-65
2021/09/27 02:11:02;;;;;;;;;;;16.40;1.00;;;;;;5061090;28;19928;-66
2021/09/27 02:13:42;;;;;;;;;;;16.40;1.00;;;;;;5069670;28;20288;-65
2021/09/27 02:16:13;;;;;;;;;;;16.40;1.00;;;;;;5071398;28;20487;-65
2021/09/27 02:18:47;;;;;;;;;;;16.30;1.00;;;;;;5071024;28;19912;-65
2021/09/27 02:21:17;;;;;;;;;;;16.30;1.00;;;;;;5071242;28;20050;-66
2021/09/27 02:23:53;;;;;;;;;;;16.20;1.00;;;;;;5070142;28;20424;-66
2021/09/27 02:26:19;;;;;;;;;;;16.20;1.00;;;;;;5051008;28;19936;-65
2021/09/27 02:28:45;;;;;;;;;;;16.10;1.00;;;;;;5054665;28;19908;-66
2021/09/27 02:31:25;;;;;;;;;;;16.10;1.00;;;;;;5071119;28;19913;-65
2021/09/27 02:33:55;;;;;;;;;;;16.10;1.00;;;;;;5069885;28;19916;-65
2021/09/27 02:36:20;;;;;;;;;;;15.90;1.00;;;;;;5071341;28;20510;-64
2021/09/27 02:39:09;;;;;;;;;;;15.90;1.00;;;;;;5071229;28;19995;-65
2021/09/27 02:41:47;;;;;;;;;;;15.80;1.00;;;;;;5041761;28;19909;-64
2021/09/27 02:44:13;;;;;;;;;;;15.80;1.00;;;;;;5069803;28;20340;-65
2021/09/27 02:46:43;;;;;;;;;;;15.80;1.00;;;;;;5070647;28;19912;-65
2021/09/27 02:49:11;;;;;;;;;;;15.80;1.00;;;;;;5070129;28;19948;-64
2021/09/27 02:51:38;;;;;;;;;;;15.80;1.00;;;;;;5070746;28;19915;-65
2021/09/27 02:54:04;;;;;;;;;;;15.80;1.00;;;;;;5069999;28;19938;-65
2021/09/27 02:56:42;;;;;;;;;;;15.70;1.00;;;;;;5070222;28;19912;-65
2021/09/27 02:59:26;;;;;;;;;;;15.70;1.00;;;;;;5069494;28;20761;-65
2021/09/27 03:01:55;;;;;;;;;;;15.60;1.00;;;;;;5066011;28;19927;-64
2021/09/27 03:04:26;;;;;;;;;;;15.50;1.00;;;;;;5053101;28;19967;-65
2021/09/27 03:07:10;;;;;;;;;;;15.50;1.00;;;;;;5050656;28;19959;-64
2021/09/27 03:09:39;;;;;;;;;;;15.40;1.00;;;;;;5050533;28;19912;-65
2021/09/27 03:12:16;;;;;;;;;;;15.40;1.00;;;;;;5068657;28;20369;-65
2021/09/27 03:14:47;;;;;;;;;;;15.40;1.00;;;;;;5069730;28;19916;-64
2021/09/27 03:17:33;;;;;;;;;;;15.40;1.00;;;;;;5069497;28;19940;-65
2021/09/27 03:19:59;;;;;;;;;;;15.40;1.00;;;;;;5070886;28;20311;-66
2021/09/27 03:22:34;;;;;;;;;;;15.50;1.00;;;;;;5069384;28;19909;-67
2021/09/27 03:25:18;;;;;;;;;;;15.50;1.00;;;;;;5070407;28;19908;-67
2021/09/27 03:27:43;;;;;;;;;;;15.60;1.00;;;;;;5069140;28;20106;-64
2021/09/27 03:30:09;;;;;;;;;;;15.70;1.00;;;;;;5069539;28;20000;-64
2021/09/27 03:32:37;;;;;;;;;;;15.70;1.00;;;;;;5068534;28;19915;-65
2021/09/27 03:35:03;;;;;;;;;;;15.80;1.00;;;;;;5069869;28;20357;-65
2021/09/27 03:37:58;;;;;;;;;;;15.90;1.00;;;;;;5069509;28;19920;-65
2021/09/27 03:40:26;;;;;;;;;;;15.90;1.00;;;;;;5056686;28;20024;-65
2021/09/27 03:43:00;;;;;;;;;;;16.00;1.00;;;;;;5068146;28;19913;-65
2021/09/27 03:45:35;;;;;;;;;;;16.00;1.00;;;;;;5069196;28;20376;-65
2021/09/27 03:48:07;;;;;;;;;;;16.00;1.00;;;;;;5069481;28;20299;-65
2021/09/27 03:50:48;;;;;;;;;;;16.00;1.00;;;;;;5069924;28;19912;-65
2021/09/27 03:53:16;;;;;;;;;;;16.10;1.00;;;;;;5068677;28;20292;-65
2021/09/27 03:55:45;;;;;;;;;;;16.10;1.00;;;;;;5069389;28;20234;-64
2021/09/27 03:58:27;;;;;;;;;;;16.20;1.00;;;;;;5068386;28;19920;-65
2021/09/27 04:01:08;;;;;;;;;;;16.20;1.00;;;;;;5069021;28;19917;-66
2021/09/27 04:03:51;;;;;;;;;;;16.20;1.00;;;;;;5079413;28;20007;-65
2021/09/27 04:06:35;;;;;;;;;;;16.20;1.00;;;;;;5089816;28;20391;-64
2021/09/27 04:09:19;;;;;;;;;;;16.30;1.00;;;;;;5089031;28;20400;-65
2021/09/27 04:11:48;;;;;;;;;;;16.30;1.00;;;;;;5070193;28;19946;-65
2021/09/27 04:14:22;;;;;;;;;;;16.30;1.00;;;;;;5068096;28;19965;-64
2021/09/27 04:16:56;;;;;;;;;;;16.30;1.00;;;;;;5070093;28;20282;-64
2021/09/27 04:19:30;;;;;;;;;;;16.30;1.00;;;;;;5069608;28;19909;-65
2021/09/27 04:21:56;;;;;;;;;;;16.30;1.00;;;;;;5068159;28;19919;-64
2021/09/27 04:24:21;;;;;;;;;;;16.30;1.00;;;;;;5064033;28;20361;-64
2021/09/27 04:26:49;;;;;;;;;;;16.30;1.00;;;;;;5048900;28;19913;-64
2021/09/27 04:29:53;;;;;;;;;;;16.30;1.00;;;;;;5056712;28;19912;-65
2021/09/27 04:32:21;;;;;;;;;;;16.30;1.00;;;;;;4982571;28;19910;-65
2021/09/27 04:35:10;;;;;;;;;;;16.30;1.00;;;;;;4985543;28;19914;-65
2021/09/27 04:37:37;;;;;;;;;;;16.30;1.00;;;;;;5011104;28;20257;-64
2021/09/27 04:40:04;;;;;;;;;;;16.20;1.00;;;;;;5059091;28;19935;-64
2021/09/27 04:42:49;;;;;;;;;;;16.20;1.00;;;;;;5067297;28;19909;-64
2021/09/27 04:45:26;;;;;;;;;;;16.20;1.00;;;;;;5068700;28;19912;-64
2021/09/27 04:47:57;;;;;;;;;;;16.20;1.00;;;;;;5068686;28;19908;-67
2021/09/27 04:50:49;;;;;;;;;;;16.20;1.00;;;;;;5069603;28;19908;-65
2021/09/27 04:53:34;;;;;;;;;;;16.20;1.00;;;;;;5068574;28;19909;-63
2021/09/27 04:56:19;;;;;;;;;;;16.20;1.00;;;;;;5061127;28;20015;-66
2021/09/27 04:59:04;;;;;;;;;;;16.20;1.00;;;;;;5069050;28;19956;-65
2021/09/27 05:01:30;;;;;;;;;;;16.20;1.00;;;;;;5061703;28;19947;-65
2021/09/27 05:04:10;;;;;;;;;;;16.10;1.00;;;;;;5077593;28;19919;-64
2021/09/27 05:06:54;;;;;;;;;;;16.10;1.00;;;;;;5074633;22;19929;-58
2021/09/27 05:09:28;;;;;;;;;;;16.10;1.00;;;;;;5048477;28;19909;-59
2021/09/27 05:12:14;;;;;;;;;;;16.10;1.00;;;;;;5047576;28;19909;-60
2021/09/27 05:14:52;;;;;;;;;;;16.20;1.00;;;;;;5046396;28;19992;-65
2021/09/27 05:17:17;;;;;;;;;;;16.10;1.00;;;;;;5024589;28;20471;-58
2021/09/27 05:20:02;;;;;;;;;;;16.10;1.00;;;;;;5007357;28;19929;-63
2021/09/27 05:22:30;;;;;;;;;;;16.10;1.00;;;;;;5029157;28;19932;-64
2021/09/27 05:25:12;;;;;;;;;;;16.20;1.00;;;;;;5016788;28;20270;-63
2021/09/27 05:27:51;;;;;;;;;;;16.20;1.00;;;;;;5028221;28;19999;-64
2021/09/27 05:30:22;;;;;;;;;;;16.20;1.00;;;;;;5026647;28;19954;-58
2021/09/27 05:32:52;;;;;;;;;;;16.20;1.00;;;;;;5028036;28;19917;-62
2021/09/27 05:35:18;;;;;;;;;;;16.20;1.00;;;;;;5028733;28;19925;-60
2021/09/27 05:37:43;;;;;;;;;;;16.20;1.00;;;;;;5029282;28;20050;-64
2021/09/27 05:40:28;;;;;;;;;;;16.10;1.00;;;;;;5028291;28;19932;-61
2021/09/27 05:43:11;;;;;;;;;;;16.20;1.00;;;;;;5028117;28;19909;-64
2021/09/27 05:46:05;;;;;;;;;;;16.10;1.00;;;;;;5027589;28;19944;-60
2021/09/27 05:48:44;;;;;;;;;;;16.10;1.00;;;;;;5035683;28;19921;-62
2021/09/27 05:51:18;;;;;;;;;;;16.10;1.00;;;;;;5037102;28;19916;-62
2021/09/27 05:53:47;;;;;;;;;;;16.10;1.00;;;;;;5035509;28;19924;-59
2021/09/27 05:56:13;;;;;;;;;;;16.20;1.00;;;;;;5036267;28;19975;-62
2021/09/27 05:58:38;;;;;;;;;;;16.20;1.00;;;;;;5037602;28;19916;-61
2021/09/27 06:01:12;;;;;;;;;;;16.30;1.00;;;;;;5036028;28;19964;-60
2021/09/27 06:03:41;;;;;;;;;;;16.20;1.00;;;;;;5036696;28;19909;-60
2021/09/27 06:06:06;;;;;;;;;;;16.20;1.00;;;;;;5034106;28;19920;-61
2021/09/27 06:08:41;;;;;;;;;;;16.30;1.00;;;;;;5037146;28;20549;-63
2021/09/27 06:11:12;;;;;;;;;;;16.30;1.00;;;;;;5035848;28;20401;-60
2021/09/27 06:13:41;;;;;;;;;;;16.30;1.00;;;;;;5035325;28;19939;-59
2021/09/27 06:16:16;;;;;;;;;;;16.40;1.00;;;;;;5037278;28;19915;-62
2021/09/27 06:18:49;;;;;;;;;;;16.50;1.00;;;;;;5034056;28;20400;-64
2021/09/27 06:21:30;;;;;;;;;;;16.50;1.00;;;;;;5036454;28;19924;-64
2021/09/27 06:24:01;;;;;;;;;;;16.50;1.00;;;;;;5034730;28;19909;-60
2021/09/27 06:26:28;;;;;;;;;;;16.60;1.00;;;;;;5032581;28;19927;-59
2021/09/27 06:29:02;;;;;;;;;;;16.70;1.00;;;;;;5027578;28;19960;-61
2021/09/27 06:31:30;;;;;;;;;;;16.70;1.00;;;;;;5036981;28;20301;-61
2021/09/27 06:34:00;;;;;;;;;;;16.80;1.00;;;;;;5046523;28;19916;-60
2021/09/27 06:36:28;;;;;;;;;;;16.80;1.00;;;;;;5048385;28;19908;-60
2021/09/27 06:38:56;;;;;;;;;;;16.90;1.00;;;;;;5049161;28;19913;-59
2021/09/27 06:41:22;;;;;;;;;;;17.00;1.00;;;;;;5050116;28;19916;-62
2021/09/27 06:43:48;;;;;;;;;;;17.00;1.00;;;;;;5048930;28;20289;-59
2021/09/27 06:46:14;;;;;;;;;;;17.00;1.00;;;;;;5050834;28;19913;-64
2021/09/27 06:48:40;;;;;;;;;;;17.00;1.00;;;;;;5050154;28;19935;-62
2021/09/27 06:51:05;;;;;;;;;;;17.00;1.00;;;;;;5050652;28;19909;-63
2021/09/27 06:53:31;;;;;;;;;;;17.10;1.00;;;;;;5049489;28;19978;-58
2021/09/27 06:55:58;;;;;;;;;;;17.00;1.00;;;;;;5050865;28;19955;-60
2021/09/27 06:58:23;;;;;;;;;;;17.00;1.00;;;;;;5050090;28;20027;-61
2021/09/27 07:00:49;;;;;;;;;;;17.10;1.00;;;;;;5048292;28;19912;-62
2021/09/27 07:03:15;;;;;;;;;;;17.20;1.00;;;;;;5029372;28;19915;-60
2021/09/27 07:05:41;;;;;;;;;;;17.30;1.00;;;;;;5030512;28;20388;-60
2021/09/27 07:08:06;;;;;;;;;;;17.50;1.00;;;;;;5030788;28;19912;-60
2021/09/27 07:10:32;;;;;;;;;;;17.50;1.00;;;;;;5030930;28;20008;-60
2021/09/27 07:12:57;;;;;;;;;;;17.60;1.00;;;;;;5028840;28;19982;-57
2021/09/27 07:15:23;;;;;;;;;;;17.80;1.00;;;;;;5030034;28;19967;-61
2021/09/27 07:17:48;;;;;;;;;;;17.80;1.00;;;;;;5030279;28;19944;-63
2021/09/27 07:20:17;;;;;;;;;;;18.00;1.00;;;;;;5030853;28;20275;-63
2021/09/27 07:22:43;;;;;;;;;;;18.20;1.00;;;;;;5029580;28;20393;-60
2021/09/27 07:25:09;;;;;;;;;;;18.40;99.90;;;;;;5030041;28;19941;-63
2021/09/27 07:27:35;;;;;;;;;;;18.50;99.90;;;;;;5029396;28;19909;-63
2021/09/27 07:30:01;;;;;;;;;;;18.60;1.00;;;;;;5029325;28;19920;-63
2021/09/27 07:32:27;;;;;;;;;;;18.60;1.00;;;;;;5046019;28;20281;-62
2021/09/27 07:34:52;;;;;;;;;;;18.70;99.90;;;;;;5049600;28;19974;-63
2021/09/27 07:37:18;;;;;;;;;;;18.70;1.00;;;;;;5045382;28;19967;-61
2021/09/27 07:39:43;;;;;;;;;;;18.60;66.80;;;;;;5029818;28;20433;-61
2021/09/27 07:42:09;;;;;;;;;;;18.80;1.00;;;;;;5027961;28;19909;-63
2021/09/27 07:44:36;;;;;;;;;;;19.20;99.90;;;;;;5028844;28;19913;-63
2021/09/27 07:47:02;;;;;;;;;;;19.30;1.00;;;;;;5029029;28;19944;-60
2021/09/27 07:49:28;;;;;;;;;;;19.30;99.90;;;;;;5029654;28;20022;-62
2021/09/27 07:51:53;;;;;;;;;;;19.30;99.90;;;;;;5027528;28;19968;-65
2021/09/27 07:54:19;;;;;;;;;;;19.60;99.90;;;;;;5029658;28;19913;-58
2021/09/27 07:56:45;;;;;;;;;;;19.60;1.00;;;;;;5029111;28;20026;-58
2021/09/27 07:59:10;;;;;;;;;;;19.60;1.00;;;;;;5028393;28;19913;-59
2021/09/27 08:01:36;;;;;;;;;;;19.30;1.00;;;;;;5029754;28;19967;-62
2021/09/27 08:04:01;;;;;;;;;;;19.40;1.00;;;;;;5028639;28;20007;-59
2021/09/27 08:06:27;;;;;;;;;;;19.20;1.00;;;;;;5031992;28;19921;-58
2021/09/27 08:08:53;;;;;;;;;;;19.20;1.00;;;;;;5031448;28;19909;-58
2021/09/27 08:11:18;;;;;;;;;;;19.20;1.00;;;;;;5028766;28;19909;-62
2021/09/27 08:13:44;;;;;;;;;;;20.00;99.90;;;;;;5028036;28;19940;-60
2021/09/27 08:16:09;;;;;;;;;;;20.40;1.00;;;;;;5029249;28;19925;-59
2021/09/27 08:18:35;;;;;;;;;;;20.90;1.00;;;;;;5029252;28;20019;-59
2021/09/27 08:21:05;;;;;;;;;;;21.00;99.90;;;;;;5029335;28;19955;-62
2021/09/27 08:23:31;;;;;;;;;;;20.80;99.90;;;;;;5027983;28;20354;-59
2021/09/27 08:25:57;;;;;;;;;;;20.60;99.90;;;;;;5029255;28;19913;-63
2021/09/27 08:28:24;;;;;;;;;;;20.50;99.90;;;;;;5028276;28;20663;-59
2021/09/27 08:30:51;;;;;;;;;;;20.50;99.90;;;;;;5032613;28;19960;-61
2021/09/27 08:33:19;;;;;;;;;;;20.70;99.90;;;;;;5047407;28;19978;-65
2021/09/27 08:35:45;;;;;;;;;;;20.90;99.90;;;;;;5048517;28;19913;-63
2021/09/27 08:38:11;;;;;;;;;;;21.20;99.90;;;;;;5036944;28;19909;-61
2021/09/27 08:40:45;;;;;;;;;;;21.80;1.00;;;;;;5028408;28;19917;-64
2021/09/27 08:43:16;;;;;;;;;;;25.10;1.00;;;;;;5027077;28;20428;-62
2021/09/27 08:45:42;;;;;;;;;;;27.80;99.90;;;;;;5027936;28;19909;-60
2021/09/27 08:48:10;;;;;;;;;;;29.20;99.90;;;;;;5028101;28;20036;-59
2021/09/27 08:50:38;;;;;;;;;;;29.80;99.90;;;;;;5028504;28;20266;-62
2021/09/27 08:53:19;;;;;;;;;;;31.50;99.90;;;;;;5027520;28;20004;-61
2021/09/27 08:55:45;;;;;;;;;;;32.90;99.90;;;;;;5028007;28;19920;-62
2021/09/27 08:58:20;;;;;;;;;;;33.70;99.90;;;;;;5027911;28;19909;-62
2021/09/27 09:00:49;;;;;;;;;;;32.40;99.90;;;;;;5028314;28;19909;-62
2021/09/27 09:03:17;;;;;;;;;;;33.00;99.90;;;;;;5027422;28;20322;-57
2021/09/27 09:05:58;;;;;;;;;;;33.30;99.90;;;;;;5028222;28;20318;-61
2021/09/27 09:08:30;;;;;;;;;;;36.30;99.90;;;;;;5028634;28;19940;-61
2021/09/27 09:11:05;;;;;;;;;;;39.90;99.90;;;;;;5028598;28;19922;-61
2021/09/27 09:13:34;;;;;;;;;;;39.40;99.90;;;;;;5026676;28;20271;-59
2021/09/27 09:16:02;;;;;;;;;;;40.20;99.90;;;;;;5026482;28;19913;-62
2021/09/27 09:18:34;;;;;;;;;;;41.60;99.90;;;;;;5010218;28;19909;-62
2021/09/27 09:21:11;;;;;;;;;;;41.20;99.90;;;;;;5028448;28;19917;-62
2021/09/27 09:23:49;;;;;;;;;;;42.40;99.90;;;;;;5027623;28;19920;-58
2021/09/27 09:26:16;;;;;;;;;;;43.40;99.90;;;;;;5028177;28;20022;-61
2021/09/27 09:28:43;;;;;;;;;;;40.10;99.90;;;;;;5027574;28;20376;-63
2021/09/27 09:31:12;;;;;;;;;;;40.60;99.90;;;;;;5035031;28;20250;-60
2021/09/27 09:33:37;;;;;;;;;;;42.60;99.90;;;;;;5046928;28;19973;-63
2021/09/27 09:36:03;;;;;;;;;;;44.50;99.90;;;;;;5047927;28;20327;-61
2021/09/27 09:38:32;;;;;;;;;;;44.80;99.90;;;;;;5046845;28;19910;-62
2021/09/27 09:40:57;;;;;;;;;;;44.40;99.90;;;;;;5048272;28;19919;-63
2021/09/27 09:43:31;;;;;;;;;;;45.80;96.40;;;;;;5046224;28;20350;-60
2021/09/27 09:46:04;;;;;;;;;;;46.00;90.10;;;;;;5047880;28;19916;-62
2021/09/27 09:48:31;;;;;;;;;;;45.90;92.50;;;;;;5047506;28;20309;-63
2021/09/27 09:50:59;;;;;;;;;;;45.70;65.30;;;;;;5047967;28;20013;-63
2021/09/27 09:53:25;;;;;;;;;;;46.40;58.30;;;;;;5046699;28;20058;-62
2021/09/27 09:55:53;;;;;;;;;;;45.60;50.30;;;;;;5047374;28;20025;-61
2021/09/27 09:58:33;;;;;;;;;;;44.50;44.00;;;;;;5047107;28;20337;-63
2021/09/27 10:01:22;;;;;;;;;;;43.60;38.20;;;;;;5044483;28;20427;-61
2021/09/27 10:04:04;;;;;;;;;;;42.70;33.70;;;;;;5025418;28;19944;-62
2021/09/27 10:06:38;;;;;;;;;;;41.10;29.60;;;;;;5029248;28;20015;-61
2021/09/27 10:09:05;;;;;;;;;;;40.70;29.30;;;;;;5031498;28;20324;-61
2021/09/27 10:11:34;;;;;;;;;;;40.10;28.30;;;;;;5031096;28;19956;-62
2021/09/27 10:14:15;;;;;;;;;;;40.60;28.60;;;;;;5029551;28;20023;-60
2021/09/27 10:16:44;;;;;;;;;;;40.70;27.90;;;;;;5031519;28;19920;-60
2021/09/27 10:19:23;;;;;;;;;;;40.70;27.30;;;;;;5031187;28;19913;-62
2021/09/27 10:21:54;;;;;;;;;;;40.80;27.40;;;;;;5030982;28;19917;-62
2021/09/27 10:24:22;;;;;;;;;;;40.50;26.50;;;;;;5030763;28;19952;-62
2021/09/27 10:26:52;;;;;;;;;;;40.20;25.80;;;;;;5031012;28;19909;-60
2021/09/27 10:29:23;;;;;;;;;;;39.90;25.00;;;;;;5030580;28;19982;-58
2021/09/27 10:31:53;;;;;;;;;;;38.80;24.00;;;;;;5042818;28;19909;-60
2021/09/27 10:34:19;;;;;;;;;;;38.50;24.70;;;;;;5050097;28;20012;-59
2021/09/27 10:36:47;;;;;;;;;;;38.80;25.60;;;;;;5051387;28;20361;-59
2021/09/27 10:39:13;;;;;;;;;;;38.60;25.30;;;;;;5050751;28;19921;-62
2021/09/27 10:41:57;;;;;;;;;;;38.00;24.80;;;;;;5050995;28;19920;-61
2021/09/27 10:44:27;;;;;;;;;;;37.90;25.70;;;;;;5050099;28;19913;-61
2021/09/27 10:46:54;;;;;;;;;;;37.40;25.40;;;;;;5051066;28;20003;-59
2021/09/27 10:49:28;;;;;;;;;;;37.40;25.80;;;;;;5049855;28;19916;-63
2021/09/27 10:51:57;;;;;;;;;;;37.20;26.00;;;;;;5050120;28;20425;-63
2021/09/27 10:54:26;;;;;;;;;;;37.20;26.70;;;;;;5050240;28;19962;-61
2021/09/27 10:56:53;;;;;;;;;;;37.20;26.70;;;;;;5050155;28;19909;-60
2021/09/27 10:59:31;;;;;;;;;;;36.80;26.30;;;;;;5049186;28;19913;-62
2021/09/27 11:02:02;;;;;;;;;;;35.50;26.00;;;;;;5030091;28;20012;-64
2021/09/27 11:04:33;;;;;;;;;;;35.50;28.10;;;;;;5029842;28;19913;-63
2021/09/27 11:07:18;;;;;;;;;;;35.20;28.40;;;;;;5065652;22;19936;-64
2021/09/27 11:09:44;;;;;;;;;;;34.90;29.20;;;;;;5071150;28;19953;-64
2021/09/27 11:12:25;;;;;;;;;;;34.70;30.20;;;;;;5067968;28;19972;-64
2021/09/27 11:14:59;;;;;;;;;;;33.50;30.40;;;;;;5067567;28;19939;-63
2021/09/27 11:17:43;;;;;;;;;;;33.60;33.30;;;;;;5057070;28;19921;-64
2021/09/27 11:20:11;;;;;;;;;;;33.70;35.10;;;;;;5044424;28;19964;-63
2021/09/27 11:22:39;;;;;;;;;;;33.60;36.90;;;;;;5050792;28;19948;-65
2021/09/27 11:25:10;;;;;;;;;;;33.80;38.00;;;;;;5050342;28;19908;-63
2021/09/27 11:27:37;;;;;;;;;;;33.70;38.70;;;;;;5048425;28;19962;-62
2021/09/27 11:30:21;;;;;;;;;;;33.10;39.10;;;;;;5049247;28;20334;-64
2021/09/27 11:32:57;;;;;;;;;;;32.70;41.00;;;;;;5029254;28;19948;-64
2021/09/27 11:35:31;;;;;;;;;;;32.20;42.30;;;;;;5030212;28;19959;-64
2021/09/27 11:38:06;;;;;;;;;;;32.10;44.60;;;;;;5044058;28;19908;-64
2021/09/27 11:40:32;;;;;;;;;;;32.00;47.10;;;;;;5061811;28;20288;-65
2021/09/27 11:43:16;;;;;;;;;;;32.20;47.70;;;;;;5069797;28;19918;-65
2021/09/27 11:45:42;;;;;;;;;;;32.40;49.80;;;;;;5069708;28;20357;-63
2021/09/27 11:48:31;;;;;;;;;;;32.60;50.40;;;;;;5069476;28;19967;-64
2021/09/27 11:51:02;;;;;;;;;;;32.70;50.40;;;;;;5070023;28;19913;-66
2021/09/27 11:53:28;;;;;;;;;;;32.70;52.20;;;;;;5069172;28;19908;-65
2021/09/27 11:56:02;;;;;;;;;;;32.70;51.10;;;;;;5069538;28;19909;-65
2021/09/27 11:58:39;;;;;;;;;;;32.60;50.60;;;;;;5069077;28;19913;-64
2021/09/27 12:01:10;;;;;;;;;;;32.40;51.70;;;;;;5065787;28;19909;-64
2021/09/27 12:03:50;;;;;;;;;;;31.80;51.90;;;;;;5048562;28;19956;-65
2021/09/27 12:06:20;;;;;;;;;;;31.80;52.20;;;;;;5049625;28;19917;-65
2021/09/27 12:08:50;;;;;;;;;;;31.50;51.70;;;;;;5049408;28;19909;-64
2021/09/27 12:11:17;;;;;;;;;;;31.00;52.10;;;;;;5063506;28;19965;-64
2021/09/27 12:13:55;;;;;;;;;;;30.50;53.70;;;;;;5067991;28;19912;-63
2021/09/27 12:16:20;;;;;;;;;;;30.10;55.30;;;;;;5069355;28;20004;-65
2021/09/27 12:18:52;;;;;;;;;;;29.60;56.40;;;;;;5068315;28;19999;-65
2021/09/27 12:21:19;;;;;;;;;;;29.50;58.50;;;;;;5069597;28;20383;-65
2021/09/27 12:23:46;;;;;;;;;;;29.60;60.90;;;;;;5057527;28;20710;-64
2021/09/27 12:26:31;;;;;;;;;;;29.80;61.50;;;;;;5048098;28;19913;-65
2021/09/27 12:29:03;;;;;;;;;;;29.80;62.10;;;;;;5046825;28;20425;-62
2021/09/27 12:31:29;;;;;;;;;;;29.20;62.40;;;;;;5056504;28;20502;-64
2021/09/27 12:33:54;;;;;;;;;;;28.70;65.50;;;;;;5025441;28;19998;-65
2021/09/27 12:36:22;;;;;;;;;;;28.30;67.70;;;;;;5047192;28;19926;-65
2021/09/27 12:38:53;;;;;;;;;;;27.80;70.10;;;;;;5053608;28;19970;-65
2021/09/27 12:41:19;;;;;;;;;;;27.60;72.10;;;;;;5062427;28;19970;-64
2021/09/27 12:43:45;;;;;;;;;;;27.30;74.30;;;;;;5065358;28;19935;-64
2021/09/27 12:46:20;;;;;;;;;;;27.00;77.20;;;;;;5067615;28;20372;-64
2021/09/27 12:48:49;;;;;;;;;;;26.60;78.90;;;;;;5066844;28;20399;-65
2021/09/27 12:51:19;;;;;;;;;;;26.40;81.40;;;;;;5068779;28;19962;-65
2021/09/27 12:53:55;;;;;;;;;;;26.50;85.50;;;;;;5068371;28;20331;-65
2021/09/27 12:56:21;;;;;;;;;;;26.40;87.50;;;;;;5068671;28;19954;-65
2021/09/27 12:58:54;;;;;;;;;;;26.50;91.00;;;;;;5068028;28;19912;-65
2021/09/27 13:01:23;;;;;;;;;;;26.60;92.30;;;;;;5062763;28;19924;-65
2021/09/27 13:04:08;;;;;;;;;;;26.90;93.10;;;;;;5047755;28;19916;-66
2021/09/27 13:06:54;;;;;;;;;;;27.10;93.70;;;;;;5034307;28;19927;-66
2021/09/27 13:09:24;;;;;;;;;;;27.20;94.60;;;;;;5048455;28;20362;-66
2021/09/27 13:12:07;;;;;;;;;;;27.30;95.20;;;;;;5066203;28;19923;-66
2021/09/27 13:14:33;;;;;;;;;;;27.20;95.30;;;;;;5068036;28;20321;-65
2021/09/27 13:17:14;;;;;;;;;;;27.20;96.00;;;;;;5068694;28;19963;-65
2021/09/27 13:19:41;;;;;;;;;;;27.10;96.60;;;;;;5068615;28;20245;-65
2021/09/27 13:22:26;;;;;;;;;;;27.10;97.00;;;;;;5068123;28;20055;-65
2021/09/27 13:24:55;;;;;;;;;;;26.90;97.40;;;;;;5059796;28;19912;-65
2021/09/27 13:27:23;;;;;;;;;;;26.80;98.50;;;;;;5047445;28;20427;-66
2021/09/27 13:29:50;;;;;;;;;;;26.70;99.50;;;;;;5048549;28;20435;-66
2021/09/27 13:32:18;;;;;;;;;;;26.70;99.90;;;;;;5063488;28;19913;-65
2021/09/27 13:34:49;;;;;;;;;;;26.80;99.90;;;;;;5068777;28;20016;-66
2021/09/27 13:37:37;;;;;;;;;;;26.80;99.90;;;;;;5068063;28;19999;-63
2021/09/27 13:40:17;;;;;;;;;;;26.90;99.90;;;;;;5057752;28;20005;-65
2021/09/27 13:42:46;;;;;;;;;;;27.00;99.90;;;;;;5068727;28;19909;-65
2021/09/27 13:45:14;;;;;;;;;;;27.10;99.90;;;;;;5071940;28;19916;-66
2021/09/27 13:47:39;;;;;;;;;;;27.00;99.90;;;;;;5071241;28;19909;-66
2021/09/27 13:50:05;;;;;;;;;;;27.10;99.90;;;;;;5072442;28;19919;-66
2021/09/27 13:52:36;;;;;;;;;;;27.20;99.90;;;;;;5071329;28;19983;-64
2021/09/27 13:55:06;;;;;;;;;;;27.10;99.90;;;;;;5072044;28;19916;-66
2021/09/27 13:57:32;;;;;;;;;;;27.10;99.90;;;;;;5070975;28;19940;-65
2021/09/27 13:59:57;;;;;;;;;;;26.90;99.90;;;;;;5071944;28;19954;-65
2021/09/27 14:02:23;;;;;;;;;;;26.90;99.90;;;;;;5063809;28;20647;-64
2021/09/27 14:04:48;;;;;;;;;;;26.90;99.90;;;;;;5063601;28;19908;-65
2021/09/27 14:07:14;;;;;;;;;;;27.00;99.90;;;;;;5072597;28;20483;-67
2021/09/27 14:09:40;;;;;;;;;;;26.90;99.90;;;;;;5071068;28;19977;-65
2021/09/27 14:12:05;;;;;;;;;;;26.70;99.90;;;;;;5050450;28;19986;-65
2021/09/27 14:14:31;;;;;;;;;;;26.60;99.90;;;;;;5052767;28;19943;-64
2021/09/27 14:16:57;;;;;;;;;;;26.50;99.90;;;;;;5052270;28;19932;-65
2021/09/27 14:19:23;;;;;;;;;;;26.50;99.90;;;;;;5051424;28;20017;-65
2021/09/27 14:21:48;;;;;;;;;;;26.40;99.90;;;;;;5051054;28;19909;-64
2021/09/27 14:24:14;;;;;;;;;;;26.40;99.90;;;;;;5055223;28;20015;-63
2021/09/27 14:26:39;;;;;;;;;;;26.30;99.90;;;;;;5071705;28;19981;-64
2021/09/27 14:29:05;;;;;;;;;;;26.10;99.90;;;;;;5063835;28;19948;-65
2021/09/27 14:31:30;;;;;;;;;;;25.90;99.90;;;;;;5061192;28;19913;-65
2021/09/27 14:33:56;;;;;;;;;;;25.70;99.90;;;;;;5069717;28;20022;-64
2021/09/27 14:36:22;;;;;;;;;;;25.50;99.90;;;;;;5071552;28;19913;-65
2021/09/27 14:38:48;;;;;;;;;;;25.30;99.90;;;;;;5071894;28;19913;-67
2021/09/27 14:41:17;;;;;;;;;;;25.10;99.90;;;;;;5071790;28;19950;-65
2021/09/27 14:43:44;;;;;;;;;;;25.10;99.90;;;;;;5085331;22;19931;-66
2021/09/27 14:46:09;;;;;;;;;;;25.00;99.90;;;;;;5051639;28;20710;-66